Time;durP1;ratioP1;P1;durP2;ratioP2;P2;SDS_P1;SDS_P2;PMS_P1;PMS_P2;Temp;Humidity;BMP_temperature;BMP_pressure;BME280_temperature;BME280_humidity;BME280_pressure;Samples;Min_cycle;Max_cycle;Signal;HPM_P1;HPM_P2
2023/05/11 00:01:06;;;;;;;7.90;7.70;;;12.80;99.90;;;;;;5031912;28;20703;-78
2023/05/11 00:03:34;;;;;;;7.90;7.70;;;12.80;99.90;;;;;;5023803;28;20236;-78
2023/05/11 00:06:01;;;;;;;7.83;7.63;;;12.70;99.90;;;;;;5040428;28;20303;-78
2023/05/11 00:08:29;;;;;;;8.00;7.80;;;12.70;99.90;;;;;;5028812;28;20264;-77
2023/05/11 00:10:59;;;;;;;7.77;7.57;;;12.70;99.90;;;;;;5029111;28;20228;-78
2023/05/11 00:13:27;;;;;;;8.00;7.80;;;12.70;99.90;;;;;;5023837;28;20291;-78
2023/05/11 00:15:56;;;;;;;8.27;8.07;;;12.70;99.90;;;;;;5021821;28;20236;-78
2023/05/11 00:18:23;;;;;;;7.90;7.70;;;12.70;99.90;;;;;;5020280;28;20239;-78
2023/05/11 00:20:51;;;;;;;8.17;7.97;;;12.70;99.90;;;;;;5021463;28;20220;-78
2023/05/11 00:23:18;;;;;;;7.60;7.40;;;12.70;99.90;;;;;;5020522;28;20294;-78
2023/05/11 00:25:46;;;;;;;7.70;7.50;;;12.70;99.90;;;;;;5020703;28;20725;-78
2023/05/11 00:28:13;;;;;;;8.20;8.00;;;12.70;99.90;;;;;;5020683;28;20322;-78
2023/05/11 00:30:41;;;;;;;7.93;7.73;;;12.70;99.90;;;;;;5021790;28;20296;-78
2023/05/11 00:33:10;;;;;;;7.90;7.70;;;12.70;99.90;;;;;;5021664;28;20303;-78
2023/05/11 00:35:37;;;;;;;8.10;7.90;;;12.70;99.90;;;;;;5028721;28;20246;-79
2023/05/11 00:38:05;;;;;;;7.90;7.70;;;12.60;99.90;;;;;;5020050;28;20220;-78
2023/05/11 00:40:33;;;;;;;8.03;7.83;;;12.60;99.90;;;;;;5020562;28;20232;-78
2023/05/11 00:43:00;;;;;;;8.00;7.80;;;12.60;99.90;;;;;;5020306;28;20256;-78
2023/05/11 00:45:28;;;;;;;7.90;7.70;;;12.60;99.90;;;;;;5021030;28;20243;-78
2023/05/11 00:47:56;;;;;;;8.10;7.90;;;12.60;99.90;;;;;;5020531;28;20224;-78
2023/05/11 00:50:25;;;;;;;8.20;8.00;;;12.50;99.90;;;;;;5020748;28;20323;-78
2023/05/11 00:52:53;;;;;;;7.90;7.70;;;12.50;99.90;;;;;;5020518;28;20271;-78
2023/05/11 00:55:21;;;;;;;7.90;7.70;;;12.50;99.90;;;;;;5021146;28;20232;-78
2023/05/11 00:57:49;;;;;;;8.30;8.10;;;12.50;99.90;;;;;;5022272;28;20243;-79
2023/05/11 01:00:17;;;;;;;8.17;7.97;;;12.40;99.90;;;;;;5022111;28;20331;-79
2023/05/11 01:02:45;;;;;;;8.07;7.87;;;12.40;99.90;;;;;;5022255;28;20332;-79
2023/05/11 01:05:12;;;;;;;8.20;8.00;;;12.30;99.90;;;;;;5022427;28;20238;-79
2023/05/11 01:07:49;;;;;;;8.20;8.00;;;12.20;99.90;;;;;;5021441;28;20236;-79
2023/05/11 01:10:33;;;;;;;8.20;8.00;;;12.20;99.90;;;;;;5021458;28;20228;-78
2023/05/11 01:13:14;;;;;;;8.20;8.00;;;12.10;99.90;;;;;;5021214;28;20247;-79
2023/05/11 01:15:48;;;;;;;8.20;8.00;;;12.10;99.90;;;;;;5021411;28;20259;-79
2023/05/11 01:18:21;;;;;;;8.10;7.90;;;12.10;99.90;;;;;;5020925;28;20232;-79
2023/05/11 01:20:50;;;;;;;8.10;7.90;;;12.00;99.90;;;;;;5029827;28;20228;-79
2023/05/11 01:24:28;;;;;;;8.13;7.93;;;12.00;99.90;;;;;;5030360;28;20246;-79
2023/05/11 01:27:20;;;;;;;8.20;8.00;;;12.00;99.90;;;;;;4974655;28;20305;-77
2023/05/11 01:32:55;;;;;;;8.40;8.20;;;12.10;99.90;;;;;;5118952;28;20563;-78
2023/05/11 01:35:26;;;;;;;8.40;8.20;;;12.10;99.90;;;;;;5094398;28;20225;-77
2023/05/11 01:37:57;;;;;;;8.30;8.10;;;12.20;99.90;;;;;;5093136;28;20222;-78
2023/05/11 01:40:29;;;;;;;8.20;8.00;;;12.20;99.90;;;;;;5088331;28;20740;-80
2023/05/11 01:43:04;;;;;;;8.10;7.90;;;12.20;99.90;;;;;;5095267;28;20237;-79
2023/05/11 01:45:36;;;;;;;8.00;7.80;;;12.20;99.90;;;;;;5088398;28;20240;-80
2023/05/11 01:48:14;;;;;;;8.07;7.87;;;12.30;99.90;;;;;;5078451;28;20328;-79
2023/05/11 01:50:42;;;;;;;8.20;8.00;;;12.30;99.90;;;;;;5092761;28;20283;-79
2023/05/11 01:53:12;;;;;;;7.97;7.77;;;12.30;99.90;;;;;;5098968;28;20293;-79
2023/05/11 01:55:42;;;;;;;8.20;8.00;;;12.30;99.90;;;;;;5098716;28;20229;-78
2023/05/11 01:58:11;;;;;;;8.13;7.93;;;12.30;99.90;;;;;;5101651;28;20233;-79
2023/05/11 02:00:39;;;;;;;8.47;8.27;;;12.30;99.90;;;;;;5095099;28;20226;-80
2023/05/11 02:03:10;;;;;;;8.27;8.07;;;12.30;99.90;;;;;;5086833;28;20237;-80
2023/05/11 02:05:40;;;;;;;8.20;8.00;;;12.20;99.90;;;;;;5085961;28;20318;-79
2023/05/11 02:08:09;;;;;;;8.20;8.00;;;12.20;99.90;;;;;;5086908;28;20227;-80
2023/05/11 02:10:39;;;;;;;8.10;7.90;;;12.20;99.90;;;;;;5098748;28;20277;-80
2023/05/11 02:13:06;;;;;;;7.80;7.60;;;12.20;99.90;;;;;;5105457;28;20305;-79
2023/05/11 02:15:38;;;;;;;8.20;8.00;;;12.20;99.90;;;;;;5103048;27;20234;-80
2023/05/11 02:18:12;;;;;;;8.10;7.90;;;12.20;99.90;;;;;;5097690;28;20406;-80
2023/05/11 02:20:43;;;;;;;8.07;7.87;;;12.20;99.90;;;;;;5106737;28;20213;-79
2023/05/11 02:23:11;;;;;;;8.13;7.93;;;12.20;99.90;;;;;;5115509;27;20286;-79
2023/05/11 02:25:40;;;;;;;8.03;7.83;;;12.20;99.90;;;;;;5102757;28;20211;-79
2023/05/11 02:28:08;;;;;;;8.10;7.90;;;12.20;99.90;;;;;;5098617;28;20249;-79
2023/05/11 02:30:45;;;;;;;7.90;7.70;;;12.10;99.90;;;;;;5115228;27;20230;-79
2023/05/11 02:33:21;;;;;;;7.97;7.77;;;12.10;99.90;;;;;;5101521;28;20332;-80
2023/05/11 02:35:50;;;;;;;7.70;7.50;;;12.10;99.90;;;;;;5101382;28;20233;-79
2023/05/11 02:38:19;;;;;;;7.50;7.30;;;12.10;99.90;;;;;;5100778;28;20293;-80
2023/05/11 02:40:51;;;;;;;7.50;7.30;;;12.10;99.90;;;;;;5100461;28;20218;-80
2023/05/11 02:43:25;;;;;;;7.40;7.20;;;12.10;99.90;;;;;;5084185;28;20242;-80
2023/05/11 02:45:59;;;;;;;7.40;7.20;;;12.10;99.90;;;;;;5088223;28;20242;-80
2023/05/11 02:48:32;;;;;;;7.67;7.47;;;12.00;99.90;;;;;;5087444;28;20239;-80
2023/05/11 02:51:02;;;;;;;7.80;7.60;;;12.10;99.90;;;;;;5070674;28;20235;-79
2023/05/11 02:53:31;;;;;;;8.00;7.80;;;12.10;99.90;;;;;;5077710;28;20305;-80
2023/05/11 02:55:59;;;;;;;8.20;8.00;;;12.00;99.90;;;;;;5085205;28;20324;-79
2023/05/11 02:58:27;;;;;;;8.10;7.90;;;12.10;99.90;;;;;;5083656;28;20240;-79
2023/05/11 03:00:55;;;;;;;7.80;7.60;;;12.00;99.90;;;;;;5069531;28;20282;-81
2023/05/11 03:03:22;;;;;;;7.80;7.60;;;12.00;99.90;;;;;;5082872;28;20236;-79
2023/05/11 03:19:19;;;;;;;7.70;7.50;;;11.90;99.90;;;;;;5083327;28;20293;-88
2023/05/11 03:22:26;;;;;;;;;;;;;;;;;;;;;
2023/05/11 03:28:29;;;;;;;7.40;7.20;;;11.90;99.90;;;;;;5043261;28;20215;-88
2023/05/11 03:31:44;;;;;;;7.63;7.43;;;11.80;99.90;;;;;;5062249;28;20220;-87
2023/05/11 03:34:53;;;;;;;7.73;7.53;;;11.90;99.90;;;;;;5059629;28;20211;-88
2023/05/11 03:37:58;;;;;;;7.80;7.60;;;11.80;99.90;;;;;;5033363;28;20250;-87
2023/05/11 03:41:18;;;;;;;;;;;;;;;;;;;;;
2023/05/11 03:44:33;;;;;;;8.30;8.10;;;11.80;99.90;;;;;;5063067;28;20230;-88
2023/05/11 03:50:32;;;;;;;7.83;7.63;;;11.80;99.90;;;;;;5052316;28;20234;-88
2023/05/11 03:56:32;;;;;;;8.10;7.90;;;11.90;99.90;;;;;;5080877;28;20222;-88
2023/05/11 03:59:39;;;;;;;8.47;8.27;;;11.90;99.90;;;;;;5067362;28;20227;-88
2023/05/11 04:05:49;;;;;;;;;;;;;;;;;;;;;
2023/05/11 04:08:37;;;;;;;;;;;;;;;;;;;;;
2023/05/11 04:14:19;;;;;;;8.60;8.40;;;11.90;99.90;;;;;;5085500;28;20239;-88
2023/05/11 04:17:21;;;;;;;8.60;8.40;;;11.90;99.90;;;;;;5074887;28;20333;-87
2023/05/11 04:23:49;;;;;;;8.60;8.40;;;11.90;99.90;;;;;;4998763;28;20216;-88
2023/05/11 04:26:40;;;;;;;8.50;8.30;;;11.90;99.90;;;;;;5048409;28;20330;-88
2023/05/11 04:32:40;;;;;;;;;;;;;;;;;;;;;
2023/05/11 04:39:02;;;;;;;8.33;8.13;;;11.70;99.90;;;;;;5062281;28;20255;-88
2023/05/11 04:45:41;;;;;;;;;;;;;;;;;;;;;
2023/05/11 04:48:39;;;;;;;8.30;8.10;;;11.70;99.90;;;;;;5043235;28;20226;-87
2023/05/11 04:51:45;;;;;;;8.90;8.60;;;11.70;99.90;;;;;;5045910;28;20298;-87
2023/05/11 04:54:55;;;;;;;;;;;;;;;;;;;;;
2023/05/11 04:57:58;;;;;;;7.63;7.43;;;11.70;99.90;;;;;;5048603;28;20239;-87
2023/05/11 05:00:36;;;;;;;7.97;7.77;;;11.70;99.90;;;;;;5071121;28;20249;-87
2023/05/11 05:03:44;;;;;;;8.00;7.80;;;11.70;99.90;;;;;;5063796;28;20230;-88
2023/05/11 05:09:35;;;;;;;8.33;8.13;;;11.80;99.90;;;;;;5072519;28;20290;-88
2023/05/11 05:12:13;;;;;;;8.33;8.13;;;11.80;99.90;;;;;;5085936;28;20234;-87
2023/05/11 05:15:05;;;;;;;8.20;8.00;;;11.80;99.90;;;;;;5100436;28;20279;-86
2023/05/11 05:20:43;;;;;;;7.90;7.70;;;11.80;99.90;;;;;;5078422;28;20242;-87
2023/05/11 05:26:41;;;;;;;8.30;8.10;;;11.70;99.90;;;;;;5065305;28;20244;-88
2023/05/11 05:29:12;;;;;;;9.60;9.30;;;11.70;99.90;;;;;;5050576;28;20420;-87
2023/05/11 05:32:03;;;;;;;9.00;8.70;;;11.70;99.90;;;;;;5079802;28;20229;-88
2023/05/11 05:43:33;;;;;;;;;;;;;;;;;;;;;
2023/05/11 05:46:47;;;;;;;8.43;8.23;;;11.90;99.90;;;;;;5071807;28;20226;-88
2023/05/11 05:58:39;;;;;;;8.03;7.83;;;12.00;99.90;;;;;;5069138;28;20235;-87
2023/05/11 06:04:17;;;;;;;8.30;8.10;;;12.00;99.90;;;;;;5075633;28;20293;-87
2023/05/11 06:07:08;;;;;;;;;;;;;;;;;;;;;
2023/05/11 06:09:46;;;;;;;8.40;8.20;;;11.80;99.90;;;;;;5069728;28;20283;-88
2023/05/11 06:12:44;;;;;;;;;;;;;;;;;;;;;
2023/05/11 06:15:29;;;;;;;8.97;8.70;;;11.90;99.90;;;;;;5058129;28;20234;-87
2023/05/11 06:18:10;;;;;;;8.80;8.60;;;11.80;99.90;;;;;;5062055;28;20246;-87
2023/05/11 06:25:11;;;;;;;8.73;8.53;;;11.80;99.90;;;;;;4925177;29;20240;-87
2023/05/11 06:27:41;;;;;;;8.07;7.87;;;11.80;99.90;;;;;;5005872;28;20286;-86
2023/05/11 06:30:14;;;;;;;8.20;8.00;;;11.80;99.90;;;;;;5070465;28;20280;-85
2023/05/11 06:32:42;;;;;;;8.43;8.23;;;11.70;99.90;;;;;;5070800;28;20230;-85
2023/05/11 06:35:10;;;;;;;8.50;8.30;;;11.70;99.90;;;;;;5063028;28;20286;-84
2023/05/11 06:37:41;;;;;;;8.30;8.10;;;11.80;99.90;;;;;;5069686;28;20293;-84
2023/05/11 06:40:14;;;;;;;8.40;8.20;;;11.80;99.90;;;;;;5071024;28;21093;-85
2023/05/11 06:42:43;;;;;;;8.43;8.23;;;11.80;99.90;;;;;;5071152;28;20218;-84
2023/05/11 06:45:11;;;;;;;8.40;8.20;;;11.80;99.90;;;;;;5082790;28;20320;-84
2023/05/11 06:47:50;;;;;;;8.33;8.13;;;11.90;99.90;;;;;;5098023;28;20215;-82
2023/05/11 06:50:20;;;;;;;8.57;8.37;;;11.90;99.90;;;;;;5080582;28;20224;-84
2023/05/11 06:52:47;;;;;;;8.70;8.50;;;12.00;99.90;;;;;;5062202;28;20215;-83
2023/05/11 06:55:19;;;;;;;8.40;8.20;;;12.00;99.90;;;;;;5076923;28;20226;-85
2023/05/11 06:57:48;;;;;;;8.60;8.40;;;12.10;99.90;;;;;;5064679;28;20249;-84
2023/05/11 07:00:19;;;;;;;8.20;8.00;;;12.20;99.90;;;;;;5065704;28;20241;-85
2023/05/11 07:02:55;;;;;;;8.10;7.90;;;12.20;99.90;;;;;;5069576;28;20227;-85
2023/05/11 07:05:24;;;;;;;7.97;7.77;;;12.20;99.90;;;;;;5080149;28;20265;-86
2023/05/11 07:07:55;;;;;;;8.03;7.83;;;12.10;99.90;;;;;;5063897;28;20284;-85
2023/05/11 07:13:10;;;;;;;8.10;7.90;;;12.00;99.90;;;;;;5082213;28;20210;-84
2023/05/11 07:15:44;;;;;;;8.53;8.33;;;11.90;99.90;;;;;;5081828;28;20225;-84
2023/05/11 07:18:12;;;;;;;8.10;7.90;;;11.90;99.90;;;;;;5078745;28;20238;-85
2023/05/11 07:20:48;;;;;;;8.20;8.00;;;11.90;99.90;;;;;;5077661;28;20257;-85
2023/05/11 07:23:18;;;;;;;8.20;8.00;;;11.90;99.90;;;;;;5043160;28;20227;-86
2023/05/11 07:25:57;;;;;;;8.27;8.07;;;11.90;99.90;;;;;;5043127;28;20236;-85
2023/05/11 07:28:27;;;;;;;8.10;7.90;;;12.00;99.90;;;;;;5042822;28;20239;-85
2023/05/11 07:35:18;;;;;;;8.07;7.87;;;12.10;99.90;;;;;;5051559;28;20238;-87
2023/05/11 07:38:44;;;;;;;8.37;8.17;;;12.20;99.90;;;;;;5043370;28;20283;-88
2023/05/11 07:42:24;;;;;;;8.10;7.90;;;12.10;99.90;;;;;;5042590;28;20238;-89
2023/05/11 07:48:14;;;;;;;7.80;7.60;;;12.00;99.90;;;;;;5062561;28;20924;-85
2023/05/11 08:04:48;;;;;;;8.30;8.10;;;12.20;99.90;;;;;;4956738;28;20227;-85
2023/05/11 08:18:27;;;;;;;;;;;;;;;;;;;;;
2023/05/11 08:37:00;;;;;;;8.63;8.43;;;12.40;99.90;;;;;;5000114;28;20233;-84
2023/05/11 08:39:41;;;;;;;8.73;8.53;;;12.30;99.90;;;;;;5042464;28;20219;-84
2023/05/11 08:43:19;;;;;;;8.50;8.30;;;12.30;99.90;;;;;;5044160;28;20261;-84
2023/05/11 08:57:49;;;;;;;8.60;8.40;;;12.30;99.90;;;;;;4958056;28;20230;-84
2023/05/11 09:00:18;;;;;;;8.73;8.53;;;12.30;99.90;;;;;;4991444;28;20246;-83
2023/05/11 09:03:07;;;;;;;8.50;8.30;;;12.30;99.90;;;;;;5047884;28;20238;-83
2023/05/11 09:05:36;;;;;;;8.70;8.50;;;12.30;99.90;;;;;;5061907;28;20255;-83
2023/05/11 09:08:07;;;;;;;8.50;8.30;;;12.40;99.90;;;;;;5098892;22;20234;-80
2023/05/11 09:10:36;;;;;;;8.67;8.47;;;12.50;99.90;;;;;;5081530;28;20272;-78
2023/05/11 09:13:05;;;;;;;8.50;8.30;;;12.50;99.90;;;;;;5081736;28;20234;-78
2023/05/11 09:15:33;;;;;;;8.80;8.60;;;12.60;99.90;;;;;;5081817;28;20222;-78
2023/05/11 09:18:01;;;;;;;8.80;8.60;;;12.50;99.90;;;;;;5066157;28;20231;-79
2023/05/11 09:20:31;;;;;;;8.57;8.37;;;12.30;99.90;;;;;;5061668;28;20230;-79
2023/05/11 09:22:59;;;;;;;8.83;8.63;;;12.30;99.90;;;;;;5062463;28;20309;-81
2023/05/11 09:25:33;;;;;;;8.90;8.70;;;12.30;99.90;;;;;;5065364;28;20278;-79
2023/05/11 09:28:01;;;;;;;8.70;8.50;;;12.30;99.90;;;;;;5070224;28;20235;-80
2023/05/11 09:30:31;;;;;;;8.80;8.60;;;12.30;99.90;;;;;;5069375;28;20249;-80
2023/05/11 09:33:01;;;;;;;8.53;8.33;;;12.40;99.90;;;;;;5054722;28;20255;-81
2023/05/11 09:35:31;;;;;;;8.87;8.67;;;12.40;99.90;;;;;;5057992;28;20222;-81
2023/05/11 09:38:05;;;;;;;8.60;8.40;;;12.50;99.90;;;;;;5065331;28;20237;-82
2023/05/11 09:40:35;;;;;;;8.60;8.40;;;12.40;99.90;;;;;;5063415;28;20309;-80
2023/05/11 09:43:04;;;;;;;8.60;8.40;;;12.40;99.90;;;;;;5062752;28;20219;-81
2023/05/11 09:45:41;;;;;;;8.20;8.00;;;12.60;99.90;;;;;;5062844;28;20249;-81
2023/05/11 09:48:31;;;;;;;8.27;8.07;;;12.70;99.90;;;;;;5062729;28;20297;-81
2023/05/11 09:51:07;;;;;;;7.77;7.57;;;12.80;99.90;;;;;;5061842;28;20261;-81
2023/05/11 09:53:41;;;;;;;8.13;7.93;;;12.90;99.90;;;;;;5067908;28;20222;-81
2023/05/11 09:56:10;;;;;;;8.33;8.13;;;13.00;99.90;;;;;;5077036;28;20235;-83
2023/05/11 09:58:53;;;;;;;8.50;8.30;;;12.90;99.90;;;;;;5062721;28;20237;-79
2023/05/11 10:01:31;;;;;;;8.80;8.60;;;12.90;99.90;;;;;;5077287;28;20296;-79
2023/05/11 10:04:01;;;;;;;8.70;8.50;;;12.90;99.90;;;;;;5072816;28;20230;-81
2023/05/11 10:06:43;;;;;;;8.93;8.70;;;12.90;99.90;;;;;;5064551;28;20227;-81
2023/05/11 10:09:12;;;;;;;9.03;8.73;;;12.90;99.90;;;;;;5065868;28;20230;-82
2023/05/11 10:11:44;;;;;;;9.10;8.80;;;13.00;99.90;;;;;;5065448;28;20253;-81
2023/05/11 10:14:15;;;;;;;9.00;8.70;;;13.00;99.90;;;;;;5065964;28;20223;-80
2023/05/11 10:16:45;;;;;;;9.30;9.00;;;13.00;99.90;;;;;;5064493;28;20239;-80
2023/05/11 10:19:14;;;;;;;9.20;8.90;;;12.90;99.90;;;;;;5084866;28;20226;-80
2023/05/11 10:21:42;;;;;;;9.30;9.00;;;13.00;99.90;;;;;;5064764;28;20243;-80
2023/05/11 10:24:12;;;;;;;9.50;9.20;;;13.00;99.90;;;;;;5081637;28;20237;-81
2023/05/11 10:26:42;;;;;;;9.37;9.07;;;13.00;99.90;;;;;;5072466;28;20233;-81
2023/05/11 10:29:10;;;;;;;9.13;8.83;;;13.00;99.90;;;;;;5065764;28;20258;-82
2023/05/11 10:31:40;;;;;;;9.30;9.00;;;12.90;99.90;;;;;;5065360;28;20230;-81
2023/05/11 10:34:12;;;;;;;9.37;9.07;;;12.80;99.90;;;;;;5065390;28;20318;-81
2023/05/11 10:36:42;;;;;;;9.10;8.80;;;12.80;99.90;;;;;;5068678;28;20246;-81
2023/05/11 10:39:09;;;;;;;9.20;8.90;;;12.90;99.90;;;;;;5067803;28;20238;-81
2023/05/11 10:42:08;;;;;;;9.40;9.10;;;12.80;99.90;;;;;;5068250;28;20234;-81
2023/05/11 10:45:00;;;;;;;9.20;8.90;;;12.80;99.90;;;;;;5076440;28;20226;-80
2023/05/11 10:47:54;;;;;;;9.37;9.07;;;12.80;99.90;;;;;;5076452;28;20294;-81
2023/05/11 10:50:45;;;;;;;9.50;9.20;;;12.90;99.90;;;;;;5075989;28;20223;-80
2023/05/11 10:53:44;;;;;;;9.60;9.30;;;12.90;99.90;;;;;;5078489;28;20219;-82
2023/05/11 10:56:31;;;;;;;9.53;9.23;;;12.90;99.90;;;;;;5073693;28;20231;-80
2023/05/11 10:59:28;;;;;;;9.03;8.73;;;13.10;99.90;;;;;;5068090;28;20279;-81
2023/05/11 11:02:00;;;;;;;8.77;8.57;;;13.10;99.90;;;;;;5065842;28;20266;-81
2023/05/11 11:04:44;;;;;;;8.80;8.60;;;13.10;99.90;;;;;;5064524;28;20333;-81
2023/05/11 11:07:17;;;;;;;8.73;8.53;;;13.00;99.90;;;;;;5065315;28;20230;-81
2023/05/11 11:09:53;;;;;;;9.30;9.00;;;12.90;99.90;;;;;;5065157;28;20238;-81
2023/05/11 11:12:22;;;;;;;8.80;8.60;;;12.80;99.90;;;;;;5065265;28;20341;-81
2023/05/11 11:14:58;;;;;;;9.20;8.90;;;12.80;99.90;;;;;;5077210;28;20230;-81
2023/05/11 11:17:30;;;;;;;9.33;9.03;;;12.70;99.90;;;;;;5083508;28;20687;-80
2023/05/11 11:19:59;;;;;;;8.90;8.70;;;12.60;99.90;;;;;;5084077;28;20234;-82
2023/05/11 11:22:47;;;;;;;9.27;8.97;;;12.60;99.90;;;;;;5083761;28;20226;-80
2023/05/11 11:25:52;;;;;;;9.30;9.00;;;12.60;99.90;;;;;;5083536;28;20226;-80
2023/05/11 11:28:19;;;;;;;9.30;9.00;;;12.60;99.90;;;;;;5083098;28;20584;-80
2023/05/11 11:30:47;;;;;;;8.87;8.63;;;12.70;99.90;;;;;;5085008;28;20258;-80
2023/05/11 11:33:35;;;;;;;8.90;8.70;;;12.80;99.90;;;;;;5088982;28;20258;-81
2023/05/11 11:36:03;;;;;;;9.10;8.80;;;12.80;99.90;;;;;;5093725;28;20226;-80
2023/05/11 11:38:33;;;;;;;8.80;8.60;;;12.80;99.90;;;;;;5088713;28;20261;-81
2023/05/11 11:41:02;;;;;;;8.33;8.13;;;12.90;99.90;;;;;;5085069;28;20233;-80
2023/05/11 11:43:45;;;;;;;8.30;8.10;;;13.00;99.90;;;;;;5086898;28;20321;-80
2023/05/11 11:46:27;;;;;;;8.40;8.20;;;13.10;99.90;;;;;;5092537;28;20234;-80
2023/05/11 11:49:07;;;;;;;8.40;8.20;;;12.90;99.90;;;;;;5098086;28;20283;-80
2023/05/11 11:51:38;;;;;;;8.73;8.50;;;13.00;99.90;;;;;;5100155;28;20225;-79
2023/05/11 11:54:08;;;;;;;8.80;8.50;;;12.90;99.90;;;;;;5088006;28;20245;-80
2023/05/11 11:56:46;;;;;;;8.90;8.63;;;12.90;99.90;;;;;;5086628;28;20234;-80
2023/05/11 11:59:15;;;;;;;8.67;8.47;;;12.90;99.90;;;;;;5084757;28;20237;-79
2023/05/11 12:01:44;;;;;;;8.87;8.57;;;12.80;99.90;;;;;;5084551;28;20221;-79
2023/05/11 12:04:39;;;;;;;8.57;8.37;;;12.70;99.90;;;;;;5085696;28;20227;-79
2023/05/11 12:07:11;;;;;;;7.97;7.77;;;12.70;99.90;;;;;;5053740;28;20239;-79
2023/05/11 12:09:46;;;;;;;8.60;8.40;;;12.70;99.90;;;;;;5057246;28;20235;-81
2023/05/11 12:12:17;;;;;;;7.80;7.60;;;12.60;99.90;;;;;;5043352;28;20227;-79
2023/05/11 12:14:47;;;;;;;8.10;7.90;;;12.60;99.90;;;;;;5040654;28;20262;-77
2023/05/11 12:17:19;;;;;;;8.10;7.90;;;12.50;99.90;;;;;;5042512;28;20246;-77
2023/05/11 12:19:47;;;;;;;8.00;7.80;;;12.50;99.90;;;;;;5053033;28;20235;-76
2023/05/11 12:22:15;;;;;;;7.90;7.70;;;12.60;99.90;;;;;;5041912;28;20287;-76
2023/05/11 12:24:44;;;;;;;7.97;7.77;;;12.70;99.90;;;;;;5048927;28;20219;-77
2023/05/11 12:27:11;;;;;;;8.03;7.83;;;12.70;99.90;;;;;;5051653;28;20347;-77
2023/05/11 12:29:40;;;;;;;8.27;8.07;;;12.60;99.90;;;;;;5045357;28;20241;-78
2023/05/11 12:32:13;;;;;;;8.10;7.90;;;12.60;99.90;;;;;;5066853;28;20325;-82
2023/05/11 12:34:40;;;;;;;7.93;7.73;;;12.70;99.90;;;;;;5061015;28;20242;-79
2023/05/11 12:37:08;;;;;;;7.80;7.60;;;12.70;99.90;;;;;;5053637;28;20378;-79
2023/05/11 12:39:36;;;;;;;7.70;7.50;;;12.70;99.90;;;;;;5079388;28;20226;-80
2023/05/11 12:42:06;;;;;;;7.73;7.53;;;12.80;99.90;;;;;;5065832;28;20235;-78
2023/05/11 12:44:34;;;;;;;7.73;7.53;;;12.80;99.90;;;;;;5060356;28;20241;-78
2023/05/11 12:47:01;;;;;;;7.80;7.60;;;12.90;99.90;;;;;;5061085;28;20353;-79
2023/05/11 12:49:29;;;;;;;7.70;7.50;;;13.00;99.90;;;;;;5061003;28;20293;-79
2023/05/11 12:52:06;;;;;;;7.87;7.67;;;13.00;99.90;;;;;;5060897;28;20223;-78
2023/05/11 12:54:37;;;;;;;7.70;7.50;;;13.10;99.90;;;;;;5066315;28;20269;-78
2023/05/11 12:57:08;;;;;;;7.67;7.47;;;13.00;99.90;;;;;;5060097;28;20238;-78
2023/05/11 12:59:37;;;;;;;7.37;7.17;;;13.00;99.90;;;;;;5059956;28;20239;-78
2023/05/11 13:02:10;;;;;;;7.53;7.33;;;12.90;99.90;;;;;;5060386;28;20238;-78
2023/05/11 13:04:38;;;;;;;7.63;7.43;;;12.90;99.90;;;;;;5060580;28;20353;-78
2023/05/11 13:07:06;;;;;;;7.50;7.30;;;12.90;99.90;;;;;;5060066;28;20249;-77
2023/05/11 13:09:34;;;;;;;7.60;7.40;;;12.90;99.90;;;;;;5059865;28;20262;-77
2023/05/11 13:12:19;;;;;;;7.30;7.10;;;12.90;99.90;;;;;;5051286;28;20230;-78
2023/05/11 13:14:49;;;;;;;7.13;6.93;;;12.90;99.90;;;;;;5056317;28;20235;-77
2023/05/11 13:17:33;;;;;;;7.00;6.80;;;12.90;99.90;;;;;;5065491;28;20243;-79
2023/05/11 13:20:20;;;;;;;7.70;7.50;;;12.90;99.90;;;;;;5064214;28;20257;-78
2023/05/11 13:22:49;;;;;;;7.90;7.70;;;12.90;99.90;;;;;;5055490;28;20286;-79
2023/05/11 13:25:20;;;;;;;7.90;7.70;;;13.00;99.90;;;;;;5068015;28;20242;-79
2023/05/11 13:27:49;;;;;;;7.97;7.77;;;13.10;99.90;;;;;;5060911;28;20238;-78
2023/05/11 13:30:17;;;;;;;8.00;7.80;;;13.30;99.90;;;;;;5068439;28;20237;-76
2023/05/11 13:32:44;;;;;;;7.90;7.70;;;13.20;99.90;;;;;;5059438;28;20283;-77
2023/05/11 13:35:12;;;;;;;7.63;7.43;;;13.30;99.90;;;;;;5058668;28;20247;-76
2023/05/11 13:37:39;;;;;;;8.00;7.80;;;13.40;99.90;;;;;;5059318;28;20235;-76
2023/05/11 13:40:09;;;;;;;7.97;7.77;;;13.40;99.90;;;;;;5064087;28;20247;-77
2023/05/11 13:42:36;;;;;;;8.03;7.83;;;13.30;99.90;;;;;;5056430;28;20234;-77
2023/05/11 13:45:07;;;;;;;8.30;8.10;;;13.20;99.90;;;;;;5049484;28;20239;-77
2023/05/11 13:47:35;;;;;;;8.20;8.00;;;13.30;99.90;;;;;;5055981;28;20262;-76
2023/05/11 13:50:03;;;;;;;8.43;8.23;;;13.30;99.90;;;;;;5055123;28;20236;-78
2023/05/11 13:52:31;;;;;;;8.60;8.40;;;13.40;99.90;;;;;;5054484;28;20225;-78
2023/05/11 13:54:58;;;;;;;8.30;8.10;;;13.50;99.90;;;;;;5062293;28;20238;-78
2023/05/11 13:57:32;;;;;;;8.27;8.07;;;13.40;99.90;;;;;;5055795;28;20299;-78
2023/05/11 14:00:00;;;;;;;8.50;8.30;;;13.40;99.90;;;;;;5062849;28;20230;-78
2023/05/11 14:02:29;;;;;;;8.20;8.00;;;13.40;99.90;;;;;;5059587;28;20309;-78
2023/05/11 14:04:57;;;;;;;8.10;7.90;;;13.40;99.90;;;;;;5055413;28;20241;-78
2023/05/11 14:07:24;;;;;;;8.37;8.17;;;13.40;99.90;;;;;;5068506;28;20298;-79
2023/05/11 14:09:52;;;;;;;8.27;8.07;;;13.40;99.90;;;;;;5055126;28;20321;-79
2023/05/11 14:12:25;;;;;;;8.50;8.30;;;13.40;99.90;;;;;;5068553;28;20322;-80
2023/05/11 14:14:52;;;;;;;8.13;7.93;;;13.30;99.90;;;;;;5070362;28;20240;-80
2023/05/11 14:17:20;;;;;;;7.93;7.73;;;13.30;99.90;;;;;;5062215;28;20235;-80
2023/05/11 14:19:49;;;;;;;7.90;7.70;;;13.30;99.90;;;;;;5063658;28;20325;-79
2023/05/11 14:22:16;;;;;;;8.00;7.80;;;13.30;99.90;;;;;;5058704;28;20223;-80
2023/05/11 14:24:44;;;;;;;8.20;8.00;;;13.20;99.90;;;;;;5057978;28;20285;-79
2023/05/11 14:27:14;;;;;;;8.13;7.93;;;13.20;99.90;;;;;;5057166;28;20442;-80
2023/05/11 14:29:42;;;;;;;7.77;7.57;;;13.10;99.90;;;;;;5051803;28;20281;-80
2023/05/11 14:32:10;;;;;;;8.17;7.97;;;13.10;99.90;;;;;;5062934;28;20331;-80
2023/05/11 14:34:38;;;;;;;7.80;7.60;;;13.20;99.90;;;;;;5062941;28;20242;-80
2023/05/11 14:37:07;;;;;;;8.10;7.90;;;13.20;99.90;;;;;;5044297;28;20248;-79
2023/05/11 14:39:35;;;;;;;8.00;7.80;;;13.20;99.90;;;;;;5043639;28;20246;-80
2023/05/11 14:42:03;;;;;;;8.07;7.87;;;13.30;99.90;;;;;;5084513;28;20289;-79
2023/05/11 14:44:31;;;;;;;8.30;8.10;;;13.30;99.90;;;;;;5069165;28;20226;-79
2023/05/11 14:46:59;;;;;;;8.23;8.03;;;13.30;99.90;;;;;;5075236;28;20234;-79
2023/05/11 14:49:27;;;;;;;8.37;8.17;;;13.30;99.90;;;;;;5067986;28;20274;-80
2023/05/11 14:51:55;;;;;;;8.40;8.20;;;13.40;99.90;;;;;;5073402;28;20223;-80
2023/05/11 14:54:24;;;;;;;8.63;8.43;;;13.30;99.90;;;;;;5082476;28;20250;-78
2023/05/11 14:56:53;;;;;;;9.10;8.80;;;13.10;99.90;;;;;;5084702;28;20313;-80
2023/05/11 14:59:23;;;;;;;8.93;8.63;;;13.00;99.90;;;;;;5084844;28;20258;-80
2023/05/11 15:01:52;;;;;;;8.00;7.80;;;13.00;99.90;;;;;;5083771;28;20788;-78
2023/05/11 15:04:20;;;;;;;7.93;7.73;;;13.00;99.90;;;;;;5074465;28;20250;-79
2023/05/11 15:13:30;;;;;;;7.60;7.40;;;13.00;99.90;;;;;;4945083;29;20234;-85
2023/05/11 15:16:03;;;;;;;7.50;7.30;;;13.10;99.90;;;;;;4958874;28;20236;-86
2023/05/11 15:24:07;;;;;;;7.53;7.33;;;13.30;99.90;;;;;;5039972;28;20204;-85
2023/05/11 15:26:48;;;;;;;7.70;7.50;;;13.30;99.90;;;;;;5035409;28;20232;-86
2023/05/11 15:29:23;;;;;;;7.77;7.57;;;13.30;99.90;;;;;;5029007;28;20240;-85
2023/05/11 15:32:10;;;;;;;7.40;7.20;;;13.10;99.90;;;;;;5032196;28;20243;-84
2023/05/11 15:37:35;;;;;;;7.67;7.47;;;13.00;99.90;;;;;;5047285;28;20235;-85
2023/05/11 15:40:05;;;;;;;7.90;7.70;;;13.10;99.90;;;;;;5045720;28;20302;-85
2023/05/11 15:42:45;;;;;;;7.90;7.70;;;13.00;99.90;;;;;;5044980;28;20231;-86
2023/05/11 15:53:26;;;;;;;7.93;7.73;;;12.90;99.90;;;;;;5043533;28;20219;-84
2023/05/11 15:55:54;;;;;;;7.57;7.37;;;12.90;99.90;;;;;;5043721;28;20327;-83
2023/05/11 16:02:22;;;;;;;7.80;7.60;;;12.90;99.90;;;;;;5045417;28;20224;-87
2023/05/11 16:05:28;;;;;;;7.70;7.50;;;12.80;99.90;;;;;;5024548;28;20224;-88
2023/05/11 16:08:05;;;;;;;7.97;7.77;;;12.90;99.90;;;;;;5032759;28;20242;-88
2023/05/11 16:10:56;;;;;;;7.60;7.40;;;12.90;99.90;;;;;;5043451;28;20255;-88
2023/05/11 16:16:07;;;;;;;7.70;7.50;;;12.70;99.90;;;;;;5038402;28;20239;-87
2023/05/11 16:18:37;;;;;;;7.90;7.70;;;12.70;99.90;;;;;;5046813;28;20218;-86
2023/05/11 16:21:17;;;;;;;7.70;7.50;;;12.60;99.90;;;;;;5075112;28;20250;-86
2023/05/11 16:23:47;;;;;;;7.60;7.40;;;12.50;99.90;;;;;;5070295;28;20226;-85
2023/05/11 16:26:15;;;;;;;7.40;7.20;;;12.50;99.90;;;;;;5064968;28;20229;-86
2023/05/11 16:28:45;;;;;;;7.77;7.57;;;12.50;99.90;;;;;;5049409;28;20254;-86
2023/05/11 16:31:12;;;;;;;7.60;7.40;;;12.50;99.90;;;;;;5059901;28;20230;-85
2023/05/11 16:33:42;;;;;;;7.47;7.27;;;12.50;99.90;;;;;;5043342;28;20231;-85
2023/05/11 16:36:22;;;;;;;7.30;7.10;;;12.60;99.90;;;;;;5044554;28;20232;-86
2023/05/11 16:41:48;;;;;;;7.43;7.23;;;12.70;99.90;;;;;;5033688;28;20247;-85